Fort Lauderdale Hollywood International Airport Fort Lauderdale US
ICAO: KFLL
IATA: FLL
Category: Large
Scheduled Services: Yes

Elevation: 9 ft
TransAlt. 18000 ft.

Airport Communications:
MIAMI APP:118.1
ATIS:135
CLNC DEL:128.4
MIAMI DEP:119.7
GND:121.4
TWR:119.3
UNICOM:122.95

KFLL Zoom In..

Runways:

(A) RW 10L length 9000 ft width 150 ft
ILS 110.10 / hdg 96

(B) RW 10R length 5276 ft width 100 ft
---- / hdg 96

(C) RW 28L length 5276 ft width 100 ft
---- / hdg 276

(D) RW 28R length 9000 ft width 150 ft
ILS 110.70 / hdg 276

Location; KFLL
Day. 22 / Time. 01.53 Zulu
* Altimeter: 30.05
* Temperature: 26° c. 78.8°f.
* Wind from: 110° Speed 15 kn.
Dewpoint: 23° c.
Visibility: 10 Statute Miles.
Clouds: Scattered 2200 ft.
Clouds: Broken 13000 ft.
Clouds: Overcast 17000 ft.

KFLL 220153Z 11015KT 10SM SCT022 BKN130 OVC170 26/23 A3005 RMK AO2 SLP174 T02610233


Wind From 110°
Speed 15 kn.

 
 
jpsmedia.com for Web Design SOUNDCLOUD worldairports.se 2018   terms of use